createdAt,value
2022-08-07T00:02:36.277Z,2.40
2022-08-07T00:05:04.419Z,2.60
2022-08-07T00:07:40.311Z,2.40
2022-08-07T00:10:25.882Z,2.60
2022-08-07T00:12:59.921Z,2.60
2022-08-07T00:15:37.982Z,2.30
2022-08-07T00:18:19.492Z,2.30
2022-08-07T00:20:49.687Z,2.60
2022-08-07T00:23:18.540Z,2.90
2022-08-07T00:25:58.257Z,2.60
2022-08-07T00:28:33.711Z,2.90
2022-08-07T00:31:12.719Z,2.50
2022-08-07T00:33:47.426Z,2.50
2022-08-07T00:36:16.866Z,2.60
2022-08-07T00:38:45.256Z,2.30
2022-08-07T00:41:15.109Z,2.40
2022-08-07T00:44:00.667Z,2.30
2022-08-07T00:46:32.996Z,3.00
2022-08-07T00:49:03.458Z,2.40
2022-08-07T00:51:57.318Z,2.40
2022-08-07T00:54:20.650Z,2.30
2022-08-07T00:56:51.504Z,2.50
2022-08-07T00:59:35.053Z,2.30
2022-08-07T01:02:08.954Z,2.60
2022-08-07T01:04:43.459Z,2.30
2022-08-07T01:07:13.239Z,2.70
2022-08-07T01:10:06.537Z,2.20
2022-08-07T01:12:31.054Z,2.80
2022-08-07T01:17:30.966Z,2.40
2022-08-07T01:20:06.564Z,2.40
2022-08-07T01:22:38.033Z,2.30
2022-08-07T01:25:53.691Z,2.40
2022-08-07T01:28:05.660Z,2.10
2022-08-07T01:30:36.012Z,2.30
2022-08-07T01:33:07.464Z,2.40
2022-08-07T01:35:53.115Z,2.30
2022-08-07T01:38:25.792Z,2.40
2022-08-07T01:41:02.292Z,2.30
2022-08-07T01:43:34.747Z,2.30
2022-08-07T01:46:12.319Z,2.30
2022-08-07T01:48:47.704Z,2.30
2022-08-07T01:52:00.923Z,2.30
2022-08-07T01:54:33.190Z,2.30
2022-08-07T01:57:24.774Z,2.40
2022-08-07T02:00:01.339Z,2.30
2022-08-07T02:03:12.566Z,2.30
2022-08-07T02:05:59.810Z,2.10
2022-08-07T02:08:34.157Z,2.50
2022-08-07T02:11:04.953Z,2.20
2022-08-07T02:13:57.534Z,2.30
2022-08-07T02:16:29.878Z,2.60
2022-08-07T02:19:05.384Z,2.40
2022-08-07T02:21:58.579Z,2.60
2022-08-07T02:24:29.936Z,2.30
2022-08-07T02:27:01.443Z,2.50
2022-08-07T02:29:34.415Z,2.30
2022-08-07T02:32:13.617Z,2.70
2022-08-07T02:34:51.201Z,2.30
2022-08-07T02:37:22.183Z,2.10
2022-08-07T02:42:40.705Z,2.40
2022-08-07T02:45:57.569Z,2.40
2022-08-07T02:48:02.955Z,2.50
2022-08-07T02:50:35.458Z,2.40
2022-08-07T02:53:10.980Z,2.40
2022-08-07T02:56:03.933Z,2.20
2022-08-07T02:58:36.804Z,1.80
2022-08-07T03:01:18.658Z,2.20
2022-08-07T03:03:50.542Z,2.20
2022-08-07T03:06:33.246Z,2.30
2022-08-07T03:09:04.765Z,2.10
2022-08-07T03:11:38.404Z,2.00
2022-08-07T03:14:08.686Z,2.20
2022-08-07T03:16:38.551Z,2.30
2022-08-07T03:19:08.337Z,2.50
2022-08-07T03:24:19.966Z,2.20
2022-08-07T03:26:59.748Z,2.30
2022-08-07T03:29:44.621Z,2.40
2022-08-07T03:32:29.782Z,2.50
2022-08-07T03:35:17.441Z,2.60
2022-08-07T03:37:56.670Z,2.50
2022-08-07T03:40:32.037Z,2.30
2022-08-07T03:43:13.639Z,2.30
2022-08-07T03:45:47.786Z,2.50
2022-08-07T03:48:19.152Z,2.30
2022-08-07T03:50:56.169Z,2.20
2022-08-07T03:53:50.205Z,2.20
2022-08-07T03:56:33.166Z,2.00
2022-08-07T03:59:08.644Z,2.40
2022-08-07T04:01:46.184Z,2.20
2022-08-07T04:04:18.193Z,2.10
2022-08-07T04:06:50.808Z,2.60
2022-08-07T04:09:23.477Z,2.30
2022-08-07T04:12:23.991Z,2.20
2022-08-07T04:14:46.146Z,2.70
2022-08-07T04:18:31.074Z,2.30
2022-08-07T04:20:10.410Z,2.30
2022-08-07T04:22:41.094Z,2.10
2022-08-07T04:25:24.297Z,2.20
2022-08-07T04:28:01.018Z,2.50
2022-08-07T04:30:43.337Z,2.20
2022-08-07T04:33:24.666Z,2.60
2022-08-07T04:35:54.732Z,2.30
2022-08-07T04:38:26.489Z,2.20
2022-08-07T04:40:56.854Z,3.00
2022-08-07T04:44:10.648Z,2.40
2022-08-07T04:47:04.601Z,2.30
2022-08-07T04:50:05.406Z,2.20
2022-08-07T04:52:54.415Z,2.80
2022-08-07T04:58:07.588Z,2.20
2022-08-07T04:59:01.582Z,2.40
2022-08-07T05:01:40.815Z,2.50
2022-08-07T05:04:17.369Z,2.40
2022-08-07T05:07:19.782Z,2.50
2022-08-07T05:09:59.785Z,1.90
2022-08-07T05:12:51.387Z,2.30
2022-08-07T05:15:31.352Z,2.20
2022-08-07T05:18:09.259Z,2.50
2022-08-07T05:20:42.728Z,2.50
2022-08-07T05:23:20.008Z,2.30
2022-08-07T05:26:13.328Z,2.30
2022-08-07T05:28:48.614Z,2.20
2022-08-07T05:31:22.938Z,2.30
2022-08-07T05:34:04.944Z,2.30
2022-08-07T05:36:42.163Z,2.20
2022-08-07T05:40:17.114Z,2.50
2022-08-07T05:42:12.388Z,2.40
2022-08-07T05:44:52.977Z,2.70
2022-08-07T05:47:38.608Z,2.00
2022-08-07T05:50:21.798Z,2.10
2022-08-07T05:52:50.272Z,2.30
2022-08-07T05:55:18.775Z,2.60
2022-08-07T05:57:48.152Z,2.40
2022-08-07T06:00:19.976Z,2.00
2022-08-07T06:02:55.680Z,2.20
2022-08-07T06:05:29.082Z,2.00
2022-08-07T06:08:13.071Z,2.10
2022-08-07T06:14:11.624Z,2.40
2022-08-07T06:16:13.685Z,2.10
2022-08-07T06:18:51.447Z,2.30
2022-08-07T06:22:14.368Z,2.00
2022-08-07T06:24:52.491Z,2.10
2022-08-07T06:27:03.690Z,2.20
2022-08-07T06:29:34.305Z,2.00
2022-08-07T06:32:02.949Z,2.00
2022-08-07T06:34:33.020Z,1.70
2022-08-07T06:37:02.442Z,2.00
2022-08-07T06:40:16.776Z,1.90
2022-08-07T06:42:26.595Z,1.90
2022-08-07T06:45:17.946Z,2.20
2022-08-07T06:47:58.372Z,2.60
2022-08-07T06:50:33.610Z,2.10
2022-08-07T06:53:07.217Z,2.00
2022-08-07T06:56:00.898Z,1.90
2022-08-07T06:58:32.190Z,2.00
2022-08-07T07:01:07.711Z,1.70
2022-08-07T07:03:49.952Z,2.00
2022-08-07T07:06:26.624Z,1.90
2022-08-07T07:08:56.738Z,2.00
2022-08-07T07:12:08.673Z,1.70
2022-08-07T07:14:16.967Z,1.90
2022-08-07T07:16:50.885Z,1.90
2022-08-07T07:19:56.263Z,1.80
2022-08-07T07:22:36.513Z,1.80
2022-08-07T07:26:31.152Z,2.00
2022-08-07T07:28:29.916Z,2.00
2022-08-07T07:30:57.668Z,1.90
2022-08-07T07:33:29.020Z,1.90
2022-08-07T07:36:05.475Z,2.00
2022-08-07T07:38:45.959Z,2.30
2022-08-07T07:41:17.566Z,1.90
2022-08-07T07:44:17.643Z,2.00
2022-08-07T07:46:55.702Z,1.90
2022-08-07T07:50:36.038Z,1.90
2022-08-07T07:52:21.955Z,1.90
2022-08-07T07:54:54.312Z,1.80
2022-08-07T07:57:52.223Z,2.20
2022-08-07T08:00:21.133Z,2.40
2022-08-07T08:03:08.051Z,2.00
2022-08-07T08:05:42.964Z,2.00
2022-08-07T08:08:35.206Z,2.20
2022-08-07T08:11:08.497Z,1.90
2022-08-07T08:13:55.453Z,2.10
2022-08-07T08:16:39.117Z,2.00
2022-08-07T08:19:17.782Z,2.40
2022-08-07T08:22:18.937Z,1.90
2022-08-07T08:25:24.996Z,1.80
2022-08-07T08:28:01.982Z,1.90
2022-08-07T08:30:37.533Z,2.10
2022-08-07T08:33:18.855Z,2.00
2022-08-07T08:35:51.879Z,2.20
2022-08-07T08:38:29.562Z,2.00
2022-08-07T08:41:57.587Z,2.40
2022-08-07T08:45:00.728Z,2.50
2022-08-07T08:47:47.401Z,2.10
2022-08-07T08:50:39.469Z,2.10
2022-08-07T08:53:32.649Z,1.90
2022-08-07T08:56:08.620Z,1.70
2022-08-07T08:59:17.005Z,2.30
2022-08-07T09:02:08.926Z,2.20
2022-08-07T09:05:10.091Z,2.20
2022-08-07T09:07:58.190Z,2.40
2022-08-07T09:10:44.343Z,2.40
2022-08-07T09:13:35.249Z,2.30
2022-08-07T09:16:39.771Z,2.60
2022-08-07T09:19:51.132Z,2.40
2022-08-07T09:24:27.522Z,2.20
2022-08-07T09:25:17.598Z,2.70
2022-08-07T09:28:01.231Z,2.30
2022-08-07T09:31:01.070Z,2.20
2022-08-07T09:33:59.834Z,2.20
2022-08-07T09:36:36.934Z,2.50
2022-08-07T09:39:55.093Z,2.30
2022-08-07T09:42:42.251Z,2.30
2022-08-07T09:47:51.686Z,2.30
2022-08-07T09:48:19.125Z,2.70
2022-08-07T09:50:56.546Z,2.50
2022-08-07T09:53:40.487Z,2.30
2022-08-07T09:56:44.158Z,2.30
2022-08-07T09:59:44.599Z,2.60
2022-08-07T10:02:55.309Z,2.20
2022-08-07T10:06:00.188Z,2.30
2022-08-07T10:08:52.183Z,2.50
2022-08-07T10:12:01.579Z,2.20
2022-08-07T10:15:00.247Z,2.40
2022-08-07T10:18:03.067Z,2.80
2022-08-07T10:20:50.178Z,2.20
2022-08-07T10:24:05.650Z,2.50
2022-08-07T10:27:00.421Z,2.70
2022-08-07T10:29:45.799Z,2.80
2022-08-07T10:32:51.339Z,2.70
2022-08-07T10:36:05.584Z,2.80
2022-08-07T10:39:12.851Z,2.40
2022-08-07T10:42:00.461Z,2.90
2022-08-07T10:44:50.050Z,2.80
2022-08-07T10:47:53.122Z,3.00
2022-08-07T10:50:31.845Z,2.40
2022-08-07T10:53:21.587Z,3.00
2022-08-07T10:56:20.907Z,2.80
2022-08-07T10:59:30.466Z,2.70
2022-08-07T11:02:27.397Z,3.30
2022-08-07T11:05:35.638Z,3.20
2022-08-07T11:08:40.363Z,2.90
2022-08-07T11:11:14.521Z,2.50
2022-08-07T11:14:45.906Z,2.50
2022-08-07T11:17:01.103Z,2.30
2022-08-07T11:19:46.345Z,2.10
2022-08-07T11:22:37.134Z,2.10
2022-08-07T11:25:36.224Z,2.00
2022-08-07T11:28:25.435Z,1.70
2022-08-07T11:31:17.444Z,1.70
2022-08-07T11:34:06.909Z,1.80
2022-08-07T11:36:56.726Z,1.80
2022-08-07T11:40:00.609Z,1.80
2022-08-07T11:42:59.180Z,1.90
2022-08-07T11:45:49.838Z,1.70
2022-08-07T11:48:53.833Z,1.80
2022-08-07T11:51:58.641Z,1.90
2022-08-07T11:54:55.117Z,1.90
2022-08-07T11:58:00.203Z,2.10
2022-08-07T12:01:02.214Z,1.80
2022-08-07T12:04:03.622Z,2.00
2022-08-07T12:06:57.229Z,2.30
2022-08-07T12:09:36.139Z,2.50
2022-08-07T12:12:12.051Z,2.70
2022-08-07T12:14:55.277Z,2.30
2022-08-07T12:17:37.939Z,2.10
2022-08-07T12:20:30.621Z,1.80
2022-08-07T12:23:37.348Z,2.00
2022-08-07T12:26:29.813Z,2.10
2022-08-07T12:29:03.718Z,2.00
2022-08-07T12:32:01.972Z,2.00
2022-08-07T12:34:37.576Z,1.90
2022-08-07T12:37:22.953Z,2.00
2022-08-07T12:39:58.857Z,2.00
2022-08-07T12:42:31.816Z,2.10
2022-08-07T12:45:11.924Z,2.30
2022-08-07T12:47:46.381Z,2.10
2022-08-07T12:50:49.188Z,2.00
2022-08-07T12:53:18.845Z,2.00
2022-08-07T12:58:39.624Z,2.40
2022-08-07T13:01:17.103Z,2.10
2022-08-07T13:04:03.140Z,2.40
2022-08-07T13:07:01.783Z,2.30
2022-08-07T13:10:21.572Z,2.30
2022-08-07T13:12:54.264Z,2.00
2022-08-07T13:15:36.971Z,2.40
2022-08-07T13:18:26.424Z,2.20
2022-08-07T13:21:05.226Z,2.60
2022-08-07T13:24:01.021Z,2.60
2022-08-07T13:26:49.508Z,2.60
2022-08-07T13:29:27.535Z,2.50
2022-08-07T13:32:31.719Z,2.50
2022-08-07T13:35:15.801Z,2.60
2022-08-07T13:38:19.279Z,2.40
2022-08-07T13:41:22.042Z,2.40
2022-08-07T13:43:56.928Z,2.40
2022-08-07T13:46:33.191Z,2.30
2022-08-07T13:49:08.663Z,2.40
2022-08-07T13:52:04.967Z,2.50
2022-08-07T13:54:49.231Z,2.20
2022-08-07T13:57:23.942Z,2.10
2022-08-07T14:00:26.214Z,2.30
2022-08-07T14:02:57.364Z,2.30
2022-08-07T14:05:37.164Z,1.90
2022-08-07T14:08:09.397Z,2.30
2022-08-07T14:10:42.189Z,2.30
2022-08-07T14:13:18.675Z,2.30
2022-08-07T14:15:57.042Z,2.30
2022-08-07T14:18:33.185Z,2.40
2022-08-07T14:22:01.145Z,2.60
2022-08-07T14:24:05.375Z,2.60
2022-08-07T14:26:50.628Z,2.40
2022-08-07T14:30:07.430Z,2.40
2022-08-07T14:32:16.472Z,2.20
2022-08-07T14:34:49.192Z,2.10
2022-08-07T14:37:32.896Z,2.40
2022-08-07T14:40:17.552Z,2.60
2022-08-07T14:45:59.971Z,2.50
2022-08-07T14:48:40.744Z,2.60
2022-08-07T14:51:18.147Z,2.90
2022-08-07T14:54:09.704Z,2.50
2022-08-07T14:56:43.840Z,2.70
2022-08-07T15:00:03.252Z,2.80
2022-08-07T15:02:31.951Z,7.40
2022-08-07T15:07:55.715Z,2.90
2022-08-07T15:10:29.987Z,6.80
2022-08-07T15:15:58.088Z,3.60
2022-08-07T15:18:41.719Z,3.20
2022-08-07T15:21:58.706Z,3.00
2022-08-07T15:25:14.522Z,3.40
2022-08-07T15:27:19.626Z,4.10
2022-08-07T15:30:08.586Z,2.80
2022-08-07T15:32:51.165Z,6.00
2022-08-07T15:36:00.818Z,3.60
2022-08-07T15:38:33.158Z,3.00
2022-08-07T15:44:12.758Z,3.10
2022-08-07T15:46:51.769Z,2.40
2022-08-07T15:50:05.215Z,2.50
2022-08-07T15:52:30.265Z,2.30
2022-08-07T15:55:08.710Z,2.60
2022-08-07T15:57:47.481Z,2.60
2022-08-07T16:00:33.622Z,2.90
2022-08-07T16:03:21.503Z,2.30
2022-08-07T16:05:58.903Z,2.70
2022-08-07T16:11:27.564Z,2.50
2022-08-07T16:14:33.303Z,2.60
2022-08-07T16:18:02.552Z,2.70
2022-08-07T16:20:33.730Z,2.30
2022-08-07T16:23:52.949Z,1.90
2022-08-07T16:26:59.612Z,2.10
2022-08-07T16:30:09.620Z,2.70
2022-08-07T16:34:02.827Z,2.00
2022-08-07T16:36:19.940Z,2.30
2022-08-07T16:39:00.911Z,2.70
2022-08-07T16:41:41.082Z,2.00
2022-08-07T16:44:40.415Z,2.10
2022-08-07T16:47:41.186Z,2.00
2022-08-07T16:50:35.679Z,1.90
2022-08-07T16:54:02.259Z,2.00
2022-08-07T16:56:38.880Z,2.00
2022-08-07T16:59:19.042Z,1.80
2022-08-07T17:03:04.991Z,2.70
2022-08-07T17:06:29.000Z,2.70
2022-08-07T17:09:09.328Z,2.20
2022-08-07T17:12:04.326Z,2.00
2022-08-07T17:14:58.809Z,1.90
2022-08-07T17:17:47.052Z,1.90
2022-08-07T17:20:29.977Z,1.90
2022-08-07T17:23:16.779Z,2.20
2022-08-07T17:25:53.735Z,2.00
2022-08-07T17:28:35.687Z,1.90
2022-08-07T17:31:18.064Z,3.40
2022-08-07T17:36:58.166Z,2.10
2022-08-07T17:39:57.794Z,2.00
2022-08-07T17:42:58.652Z,2.20
2022-08-07T17:45:42.481Z,2.30
2022-08-07T17:48:16.807Z,1.80
2022-08-07T17:51:21.326Z,1.80
2022-08-07T17:54:29.712Z,1.90
2022-08-07T17:57:18.980Z,1.60
2022-08-07T17:59:53.044Z,1.70
2022-08-07T18:02:53.814Z,1.60
2022-08-07T18:06:02.336Z,1.90
2022-08-07T18:09:01.360Z,2.10
2022-08-07T18:12:07.681Z,3.30
2022-08-07T18:14:44.985Z,2.10
2022-08-07T18:18:44.949Z,3.30
2022-08-07T18:21:07.641Z,1.90
2022-08-07T18:23:42.380Z,2.70
2022-08-07T18:26:05.417Z,3.50
2022-08-07T18:28:58.374Z,1.70
2022-08-07T18:31:50.378Z,1.10
2022-08-07T18:35:00.625Z,1.10
2022-08-07T18:38:57.384Z,1.40
2022-08-07T18:40:59.285Z,1.20
2022-08-07T18:43:58.168Z,1.50
2022-08-07T18:46:48.105Z,1.50
2022-08-07T18:50:30.075Z,1.50
2022-08-07T18:52:53.946Z,1.80
2022-08-07T18:55:43.047Z,1.80
2022-08-07T18:58:32.954Z,1.60
2022-08-07T19:02:32.190Z,1.60
2022-08-07T19:04:54.524Z,1.60
2022-08-07T19:07:51.881Z,1.30
2022-08-07T19:10:51.585Z,1.60
2022-08-07T19:13:43.040Z,1.50
2022-08-07T19:17:05.708Z,1.30
2022-08-07T19:19:59.382Z,1.30
2022-08-07T19:22:32.021Z,1.20
2022-08-07T19:25:06.559Z,1.30
2022-08-07T19:28:30.630Z,1.00
2022-08-07T19:31:03.822Z,2.20
2022-08-07T19:33:35.207Z,1.70
2022-08-07T19:36:08.798Z,1.30
2022-08-07T19:38:52.971Z,1.50
2022-08-07T19:41:44.370Z,1.30
2022-08-07T19:44:21.245Z,1.20
2022-08-07T19:46:57.513Z,1.50
2022-08-07T19:49:57.369Z,1.30
2022-08-07T19:54:56.631Z,1.00
2022-08-07T19:58:02.865Z,1.00
2022-08-07T20:00:39.913Z,1.30
2022-08-07T20:03:33.698Z,1.20
2022-08-07T20:06:06.272Z,1.30
2022-08-07T20:08:50.335Z,1.20
2022-08-07T20:11:34.334Z,1.20
2022-08-07T20:14:23.122Z,1.10
2022-08-07T20:17:04.043Z,1.00
2022-08-07T20:19:48.034Z,1.20
2022-08-07T20:22:33.828Z,1.30
2022-08-07T20:25:19.275Z,1.20
2022-08-07T20:27:57.916Z,1.40
2022-08-07T20:30:40.770Z,1.20
2022-08-07T20:33:24.389Z,1.10
2022-08-07T20:36:08.029Z,1.40
2022-08-07T20:38:53.630Z,1.20
2022-08-07T20:41:34.214Z,1.20
2022-08-07T20:44:12.572Z,1.40
2022-08-07T20:46:45.188Z,1.00
2022-08-07T20:50:00.721Z,1.30
2022-08-07T20:52:16.393Z,1.60
2022-08-07T20:54:55.399Z,2.00
2022-08-07T20:57:38.681Z,2.10
2022-08-07T21:00:21.899Z,2.10
2022-08-07T21:03:01.375Z,1.70
2022-08-07T21:05:52.803Z,1.60
2022-08-07T21:08:38.158Z,1.10
2022-08-07T21:11:14.779Z,1.30
2022-08-07T21:14:16.270Z,1.40
2022-08-07T21:16:56.828Z,1.20
2022-08-07T21:19:51.154Z,1.60
2022-08-07T21:22:31.484Z,1.20
2022-08-07T21:25:20.657Z,1.10
2022-08-07T21:28:50.024Z,1.20
2022-08-07T21:32:42.075Z,1.30
2022-08-07T21:34:31.849Z,1.00
2022-08-07T21:37:09.203Z,1.30
2022-08-07T21:40:03.257Z,1.10
2022-08-07T21:42:46.174Z,1.30
2022-08-07T21:46:08.584Z,1.20
2022-08-07T21:48:42.324Z,1.60
2022-08-07T21:51:20.079Z,1.10
2022-08-07T21:54:23.113Z,1.30
2022-08-07T21:57:39.364Z,1.10
2022-08-07T22:00:22.189Z,1.40
2022-08-07T22:03:31.639Z,1.20
2022-08-07T22:06:30.442Z,1.40
2022-08-07T22:09:11.025Z,1.30
2022-08-07T22:12:05.666Z,1.10
2022-08-07T22:15:00.162Z,1.40
2022-08-07T22:17:35.940Z,1.40
2022-08-07T22:20:23.959Z,1.10
2022-08-07T22:23:01.853Z,1.30
2022-08-07T22:25:36.061Z,1.20
2022-08-07T22:28:31.779Z,1.10
2022-08-07T22:31:58.972Z,1.40
2022-08-07T22:34:35.491Z,1.20
2022-08-07T22:37:12.548Z,1.20
2022-08-07T22:39:59.801Z,1.20
2022-08-07T22:42:35.278Z,1.30
2022-08-07T22:45:10.916Z,1.40
2022-08-07T22:48:31.757Z,1.30
2022-08-07T22:51:22.526Z,1.30
2022-08-07T22:54:16.166Z,1.40
2022-08-07T22:57:17.155Z,1.40
2022-08-07T23:00:01.072Z,1.30
2022-08-07T23:02:48.801Z,1.30
2022-08-07T23:06:09.905Z,1.10
2022-08-07T23:08:46.208Z,1.30
2022-08-07T23:11:35.196Z,1.40
2022-08-07T23:14:24.518Z,1.30
2022-08-07T23:17:22.449Z,1.40
2022-08-07T23:20:52.319Z,1.20
2022-08-07T23:24:05.232Z,1.70
2022-08-07T23:26:23.564Z,1.60
2022-08-07T23:28:54.601Z,1.30
2022-08-07T23:34:19.498Z,1.40
2022-08-07T23:35:14.098Z,1.30
2022-08-07T23:38:01.160Z,1.40
2022-08-07T23:40:43.296Z,1.40
2022-08-07T23:43:59.183Z,1.30
2022-08-07T23:46:35.916Z,1.30
2022-08-07T23:49:49.819Z,1.30
2022-08-07T23:52:58.477Z,1.20
2022-08-07T23:55:52.270Z,1.40
2022-08-07T23:58:35.166Z,1.50
